Latest Weather Observations for Davis*

IDT60801

Issued at 9:31 am EST Saturday 13 April 2024 (issued every 10 minutes, with the page automatically refreshed every 10 minutes)

About weather observations | Map of weather stations | Latest weather observations for ANT | Other Formats
Station Details ID: 300000 Name: DAVIS Lat: -68.57 Lon: 77.97 Height: 18.0 m
Data from the previous 72 hours. | See also: Recent months at Davis*
Date/Time
EST
Temp
°C
App
Temp
°C
Dew
Point
°C
Rel
Hum
%
Delta-T
°C
Wind Press
QNH
hPa
Press
MSL
hPa
Rain since
9am
mm
Dir  Spd
km/h
Gust
km/h
Spd
kts
Gust
kts
13/09:30am -23.4 -30.4 -28.4 63 - ESE 17 24 9 13 994.9 995.2 -
13/09:00am -24.1 -30.8 -29.3 62 - SE 15 19 8 10 994.8 995.1 -
13/08:30am -25.3 -32.0 -30.4 62 - ESE 15 20 8 11 994.5 994.8 -
13/08:00am -24.2 -30.9 -29.0 64 - SE 15 17 8 9 994.3 994.6 -
13/07:30am -24.2 -30.9 -29.0 64 - ESE 15 17 8 9 994.2 994.5 -
13/07:00am -24.7 -30.2 -30.0 61 - ESE 9 13 5 7 994.0 994.3 -
13/06:30am -23.7 -31.1 -29.2 60 - SE 19 20 10 11 993.8 994.1 -
13/06:00am -23.3 -30.0 -28.7 61 - SSE 15 20 8 11 993.4 993.7 -
13/05:30am -22.9 -30.3 -28.1 62 - SSE 19 26 10 14 993.4 993.7 -
13/05:00am -22.6 -30.2 -28.0 61 - SSE 20 24 11 13 993.4 993.7 -
13/04:30am -22.6 -30.2 -28.2 60 - SE 20 26 11 14 993.1 993.4 -
13/04:00am -22.3 -29.9 -27.7 61 - SSE 20 32 11 17 992.8 993.1 -
13/03:30am -23.5 -30.6 -29.4 58 - SSE 17 22 9 12 993.1 993.4 -
13/03:00am -22.8 -29.1 -28.4 60 - SSE 13 22 7 12 992.9 993.2 -
13/02:30am -23.2 -29.9 -28.4 62 - SSE 15 19 8 10 992.9 993.2 -
13/02:00am -23.3 -30.3 -29.0 59 - SE 17 22 9 12 992.9 993.2 -
13/01:30am -23.2 -28.7 -28.2 63 - S 9 13 5 7 992.9 993.2 -
13/01:00am -25.1 -32.5 -29.6 66 - SE 19 20 10 11 993.0 993.3 -
13/12:30am -24.0 -30.3 -28.7 65 - ESE 13 15 7 8 992.9 993.2 -
13/12:00am -22.7 -29.0 -27.9 62 - SSE 13 19 7 10 992.6 992.9 -
 
Date/Time
EST
Temp
°C
App
Temp
°C
Dew
Point
°C
Rel
Hum
%
Delta-T
°C
Wind Press
QNH
hPa
Press
MSL
hPa
Rain since
9am
mm
Dir  Spd
km/h
Gust
km/h
Spd
kts
Gust
kts
12/11:30pm -23.4 -29.7 -28.6 62 - SSE 13 15 7 8 992.7 993.0 -
12/11:00pm -23.1 -29.4 -28.2 63 - S 13 17 7 9 992.8 993.1 -
12/10:30pm -22.6 -29.2 -28.0 61 - S 15 19 8 10 992.8 993.1 -
12/10:00pm -22.7 -28.9 -26.9 68 - SSE 13 17 7 9 992.9 993.2 -
12/09:30pm -25.5 -31.0 -28.7 74 - E 9 9 5 5 993.2 993.5 -
12/09:00pm -24.7 -30.2 -28.3 72 - E 9 11 5 6 993.1 993.4 -
12/08:30pm -24.8 -29.9 -27.8 76 - E 7 9 4 5 993.1 993.4 -
12/08:00pm -25.5 -29.3 -29.0 72 - CALM 0 0 0 0 993.1 993.4 -
12/07:30pm -24.7 -28.5 -28.6 70 - CALM 0 0 0 0 993.0 993.3 -
12/07:00pm -24.5 -29.6 -28.4 70 - E 7 9 4 5 992.9 993.2 -
12/06:30pm -24.3 -30.2 -28.0 71 - E 11 15 6 8 992.5 992.8 -
12/06:00pm -24.5 -30.8 -28.5 69 - ESE 13 15 7 8 992.5 992.8 -
12/05:30pm -24.8 -30.3 -28.5 71 - ESE 9 11 5 6 992.4 992.7 -
12/05:00pm -25.0 -30.5 -28.7 71 - ESE 9 11 5 6 992.7 993.0 -
12/04:30pm -24.5 -29.4 -28.5 69 - ESE 6 7 3 4 992.9 993.2 -
12/04:00pm -25.9 -30.9 -30.8 63 - ESE 6 7 3 4 993.0 993.3 -
12/03:30pm -24.4 -29.0 -28.9 66 - ESE 4 7 2 4 993.1 993.4 -
12/03:00pm -24.8 -29.8 -29.8 63 - ESE 6 7 3 4 993.2 993.5 -
12/02:30pm -25.5 -31.4 -30.4 63 - ESE 11 15 6 8 993.4 993.7 -
12/02:00pm -25.0 -29.6 -30.1 62 - SSE 4 11 2 6 993.5 993.8 -
12/01:30pm -25.3 -30.8 -30.2 64 - SE 9 13 5 7 994.1 994.4 -
12/01:00pm -25.9 -31.4 -30.0 68 - SE 9 11 5 6 994.4 994.7 -
12/12:30pm -25.6 -31.5 -29.7 68 - S 11 15 6 8 994.6 994.9 -
12/12:00pm -25.8 -32.1 -30.4 65 - SSW 13 19 7 10 995.1 995.4 -
12/11:30am -25.5 -31.8 -29.8 67 - S 13 17 7 9 995.3 995.6 -
12/11:00am -24.7 -30.6 -28.9 68 - SSW 11 13 6 7 995.6 995.9 -
12/10:30am -24.6 -30.1 -29.1 66 - SSW 9 13 5 7 996.2 996.4 -
12/10:00am -24.5 -29.6 -28.7 68 - SSW 7 11 4 6 996.5 996.7 -
12/09:30am -23.3 -28.8 -28.0 65 - SSE 9 13 5 7 996.8 997.0 -
12/09:00am -23.9 -29.8 -28.4 66 - S 11 15 6 8 997.3 997.5 -
12/08:30am -22.7 -29.3 -27.4 65 - S 15 19 8 10 997.7 997.9 -
12/08:00am -24.8 -31.1 -29.3 66 - SSW 13 17 7 9 998.1 998.3 -
12/07:30am -23.5 -29.4 -28.2 65 - S 11 17 6 9 998.5 998.7 -
12/07:00am -22.8 -28.7 -27.5 65 - SSE 11 15 6 8 998.8 999.0 -
12/06:30am -22.3 -29.7 -27.4 63 - SE 19 24 10 13 998.9 999.1 -
12/06:00am -21.3 -29.3 -27.3 58 - ESE 22 33 12 18 999.2 999.4 -
12/05:30am -21.4 -27.7 -27.2 59 - ESE 13 17 7 9 999.4 999.6 -
12/05:00am -21.2 -26.7 -26.3 63 - SSE 9 13 5 7 999.6 999.8 -
12/04:30am -20.5 -26.0 -25.3 65 - SE 9 13 5 7 999.9 1000.1 -
12/04:00am -20.2 -26.8 -25.7 61 - ESE 15 19 8 10 999.9 1000.1 -
12/03:30am -20.5 -27.5 -25.7 63 - ESE 17 20 9 11 1000.1 1000.3 -
12/03:00am -20.2 -26.8 -25.4 63 - ESE 15 19 8 10 1000.1 1000.3 -
12/02:30am -19.6 -26.6 -24.8 63 - ESE 17 20 9 11 1000.2 1000.4 -
12/02:00am -19.8 -26.4 -25.0 63 - ESE 15 20 8 11 1000.6 1000.8 -
12/01:30am -19.0 -25.9 -24.1 64 - ESE 17 20 9 11 1000.8 1001.0 -
12/01:00am -17.9 -24.4 -23.2 63 - ESE 15 17 8 9 1000.9 1001.1 -
12/12:30am -17.9 -24.1 -23.6 61 - ESE 13 17 7 9 1000.9 1001.1 -
12/12:08am -17.3 -23.4 -22.8 62 - ESE 13 17 7 9 1001.0 1001.2 -
12/12:00am -17.3 -24.2 -22.8 62 - ESE 17 20 9 11 1000.9 1001.1 -
 
Date/Time
EST
Temp
°C
App
Temp
°C
Dew
Point
°C
Rel
Hum
%
Delta-T
°C
Wind Press
QNH
hPa
Press
MSL
hPa
Rain since
9am
mm
Dir  Spd
km/h
Gust
km/h
Spd
kts
Gust
kts
11/11:31pm -16.6 -23.5 -22.0 63 - ESE 17 20 9 11 1001.1 1001.3 -
11/11:30pm -16.6 -23.5 -22.0 63 - ESE 17 20 9 11 1001.0 1001.2 -
11/11:00pm -16.6 -23.5 -21.4 66 - ESE 17 24 9 13 1001.0 1001.2 -
11/10:30pm -14.5 -20.5 -19.8 64 - WSW 13 19 7 10 1000.9 1001.1 -
11/10:00pm -12.3 -18.5 -14.9 81 - WSW 15 20 8 11 1000.6 1000.8 -
11/09:41pm -12.3 -18.5 -14.9 81 - WSW 15 17 8 9 1000.6 1000.8 -
11/09:30pm -12.3 -18.9 -14.9 81 - WSW 17 20 9 11 1000.7 1000.9 -
11/09:00pm -12.4 -18.6 -15.0 81 - WSW 15 20 8 11 1000.8 1001.0 -
11/08:30pm -13.1 -16.5 -15.5 82 - CALM 0 0 0 0 1001.0 1001.2 -
11/08:27pm -13.2 -16.6 -15.6 82 - CALM 0 0 0 0 1001.0 1001.2 -
11/08:10pm -13.2 -16.6 -15.6 82 - CALM 0 0 0 0 1000.9 1001.1 -
11/08:00pm -13.2 -16.6 -15.8 81 - CALM 0 0 0 0 1000.9 1001.1 -
11/07:30pm -13.3 -16.7 -15.9 81 - CALM 0 0 0 0 1000.6 1000.8 -
11/07:11pm -13.4 -16.8 -15.9 81 - CALM 0 0 0 0 1000.4 1000.6 -
11/07:00pm -13.4 -16.8 -16.1 80 - CALM 0 0 0 0 1000.2 1000.4 -
11/06:30pm -13.5 -16.9 -16.3 79 - CALM 0 0 0 0 1000.0 1000.2 -
11/06:00pm -13.5 -16.9 -16.3 79 - CALM 0 0 0 0 999.7 999.9 -
11/05:30pm -13.2 -16.6 -15.9 80 - CALM 0 0 0 0 999.6 999.8 -
11/05:00pm -13.3 -16.7 -15.9 81 - CALM 0 0 0 0 999.2 999.4 -
11/04:30pm -13.4 -16.8 -15.9 81 - CALM 0 0 0 0 999.2 999.4 -
11/04:00pm -13.7 -18.3 -16.4 80 - WNW 6 7 3 4 999.1 999.3 -
11/03:30pm -13.7 -18.5 -16.4 80 - WNW 7 9 4 5 998.6 998.8 -
11/03:04pm -13.8 -18.6 -16.3 81 - WNW 7 9 4 5 998.4 998.6 -
11/03:00pm -13.8 -18.6 -16.3 81 - WNW 7 9 4 5 998.4 998.6 -
11/02:40pm -13.9 -19.4 -16.6 80 - WNW 11 11 6 6 998.1 998.3 -
11/02:30pm -14.0 -19.5 -16.5 81 - WNW 11 11 6 6 998.1 998.3 -
11/02:00pm -14.0 -19.9 -16.7 80 - WNW 13 17 7 9 997.9 998.1 -
11/01:45pm -14.1 -20.0 -16.6 81 - WNW 13 17 7 9 997.7 997.9 -
11/01:30pm -14.1 -20.0 -16.6 81 - WNW 13 15 7 8 997.6 997.8 -
11/01:00pm -14.1 -20.4 -16.6 81 - WNW 15 17 8 9 997.4 997.6 -
11/12:30pm -14.2 -20.5 -16.6 82 - WNW 15 17 8 9 997.1 997.3 -
11/12:00pm -14.2 -20.9 -16.6 82 - WNW 17 20 9 11 996.7 996.9 -
11/11:37am -14.4 -20.7 -16.8 82 - WNW 15 19 8 10 996.3 996.5 -
11/11:30am -14.4 -20.7 -16.8 82 - WNW 15 17 8 9 996.2 996.4 -
11/11:00am -14.3 -20.6 -16.7 82 - WNW 15 17 8 9 995.5 995.8 -
11/10:30am -14.5 -20.4 -16.9 82 - WNW 13 15 7 8 995.0 995.3 -
11/10:00am -14.5 -19.3 -16.9 82 - WNW 7 9 4 5 994.3 994.6 -
11/09:30am -14.9 -18.4 -17.3 82 - CALM 0 0 0 0 993.7 994.0 -
11/09:00am -15.0 -18.9 -17.4 82 - WNW 2 7 1 4 993.6 993.9 -
11/08:30am -15.0 -19.6 -17.4 82 - WNW 6 7 3 4 993.3 993.6 -
11/08:00am -15.1 -19.9 -17.5 82 - WNW 7 9 4 5 993.1 993.4 -
11/07:30am -15.3 -19.9 -17.5 83 - WNW 6 6 3 3 992.8 993.1 -
11/07:00am -16.0 -20.9 -18.3 82 - WNW 7 9 4 5 992.4 992.7 -
11/06:30am -16.1 -21.0 -18.3 83 - WNW 7 9 4 5 991.9 992.2 -
11/06:00am -16.6 -21.5 -18.8 83 - WNW 7 7 4 4 991.4 991.7 -
11/05:54am -16.3 -21.0 -18.4 84 - WNW 6 7 3 4 991.2 991.5 -
11/05:30am -16.2 -20.9 -18.4 83 - WNW 6 7 3 4 990.9 991.2 -
11/05:06am -16.4 -21.1 -18.5 84 - WNW 6 7 3 4 990.6 990.9 -
11/05:00am -16.4 -21.3 -18.6 83 - WNW 7 7 4 4 990.5 990.8 -
11/04:30am -16.0 -20.7 -18.3 82 - WNW 6 7 3 4 990.1 990.4 -
11/04:00am -15.0 -19.8 -16.9 85 - WNW 7 9 4 5 989.7 990.0 -
11/03:30am -15.1 -20.7 -17.2 84 - WNW 11 13 6 7 989.4 989.7 -
11/03:25am -15.2 -20.4 -17.4 83 - WNW 9 11 5 6 989.4 989.7 -
11/03:00am -14.3 -19.8 -16.7 82 - WNW 11 13 6 7 989.1 989.4 -
11/02:30am -13.4 -19.6 -15.5 84 - WNW 15 17 8 9 988.6 988.9 -
11/02:00am -13.0 -19.6 -15.1 84 - WNW 17 19 9 10 988.1 988.4 -
11/01:30am -12.8 -19.4 -14.9 84 - WNW 17 19 9 10 987.5 987.8 -
11/01:00am -12.9 -18.0 -15.0 84 - W 9 13 5 7 986.8 987.1 -
11/12:52am -12.7 -17.4 -14.7 85 - W 7 9 4 5 986.7 987.0 -
11/12:30am -12.7 -17.8 -15.0 83 - W 9 11 5 6 986.1 986.4 -
11/12:21am -12.3 -17.7 -14.6 83 - W 11 13 6 7 985.9 986.2 -
11/12:05am -12.2 -18.4 -14.6 82 - W 15 19 8 10 985.5 985.8 -
11/12:00am -11.9 -18.1 -14.2 83 - W 15 19 8 10 985.3 985.6 -
 
Date/Time
EST
Temp
°C
App
Temp
°C
Dew
Point
°C
Rel
Hum
%
Delta-T
°C
Wind Press
QNH
hPa
Press
MSL
hPa
Rain since
9am
mm
Dir  Spd
km/h
Gust
km/h
Spd
kts
Gust
kts
10/11:30pm -11.7 -18.2 -13.7 85 - W 17 19 9 10 984.8 985.1 -
10/11:00pm -11.6 -19.1 -13.6 85 - W 22 24 12 13 984.1 984.4 -
10/10:30pm -11.3 -18.4 -13.2 86 - W 20 24 11 13 983.2 983.5 -
10/10:00pm -11.0 -18.4 -12.7 87 - W 22 26 12 14 982.5 982.8 -
10/09:30pm -7.3 -14.8 -8.8 89 - N 24 30 13 16 981.5 981.8 -
10/09:21pm -7.4 -14.2 -9.2 87 - NNE 20 28 11 15 981.3 981.6 -
10/09:00pm -7.0 -16.3 -9.5 82 - NE 33 41 18 22 980.7 981.0 -
10/08:30pm -7.3 -15.7 -9.7 83 - NE 28 37 15 20 980.3 980.6 -
10/08:00pm -7.0 -16.6 -9.2 84 - NE 35 41 19 22 979.9 980.2 -
10/07:30pm -7.2 -17.3 -10.9 75 - NE 37 46 20 25 979.7 980.0 -
10/07:16pm -7.2 -17.4 -11.0 74 - NE 37 44 20 24 979.7 980.0 -
10/07:00pm -7.4 -17.2 -11.4 73 - NE 35 46 19 25 979.7 980.0 -
10/06:30pm -7.8 -17.6 -11.8 73 - NE 35 43 19 23 979.5 979.8 -
10/06:00pm -7.4 -16.9 -11.9 70 - NE 33 43 18 23 979.5 979.8 -
10/05:30pm -7.3 -16.5 -11.5 72 - NE 32 37 17 20 979.7 980.0 -
10/05:00pm -8.5 -17.1 -12.8 71 - NE 28 32 15 17 980.0 980.3 -
10/04:30pm -9.3 -17.5 -13.1 74 - NE 26 32 14 17 979.9 980.2 -
10/04:00pm -10.1 -18.0 -13.7 75 - NE 24 30 13 16 979.8 980.1 -
10/03:30pm -10.7 -19.3 -13.9 77 - NE 28 33 15 18 979.7 980.0 -
10/03:16pm -11.1 -19.8 -14.3 77 - NE 28 35 15 19 979.5 979.8 -
10/03:00pm -12.3 -21.0 -15.6 76 - NE 28 33 15 18 979.5 979.8 -
10/02:33pm -13.1 -21.5 -17.9 67 - NE 26 32 14 17 979.5 979.8 -
10/02:30pm -13.0 -21.1 -17.8 67 - NE 24 30 13 16 979.6 979.9 -
10/02:00pm -13.8 -21.9 -18.8 66 - NE 24 28 13 15 979.6 979.9 -
10/01:30pm -14.4 -21.7 -19.0 68 - NE 20 24 11 13 979.6 979.9 -
10/01:00pm -14.7 -22.1 -19.3 68 - NNW 20 24 11 13 979.5 979.8 -

Other formats

Comma delimited format used in spreadsheet applications
http://www.bom.gov.au/fwo/IDT60803/IDT60803.89571.axf

JavaScript Object Notation format (JSON) in row-major order
http://www.bom.gov.au/fwo/IDT60803/IDT60803.89571.json

Data quality

Most of these data are generated automatically and are frequently updated. Quality checks on data are not normally performed. It is possible for incorrect values to appear. Refer to information at About Latest Weather Observations and please check the disclaimer before using these data.